createdAt,value
2023-04-17T00:03:52.262Z,97641.00
2023-04-17T00:08:53.228Z,97636.00
2023-04-17T00:13:54.040Z,97639.00
2023-04-17T00:18:55.202Z,97640.00
2023-04-17T00:23:56.337Z,97638.00
2023-04-17T00:28:57.392Z,97630.00
2023-04-17T00:34:00.809Z,97636.00
2023-04-17T00:39:01.674Z,97641.00
2023-04-17T00:44:02.629Z,97637.00
2023-04-17T00:49:04.052Z,97632.00
2023-04-17T00:54:05.487Z,97634.00
2023-04-17T00:59:11.105Z,97627.00
2023-04-17T01:04:12.328Z,97628.00
2023-04-17T01:09:14.292Z,97624.00
2023-04-17T01:14:15.237Z,97623.00
2023-04-17T01:19:16.406Z,97629.00
2023-04-17T01:24:17.224Z,97623.00
2023-04-17T01:29:18.172Z,97622.00
2023-04-17T01:34:19.372Z,97622.00
2023-04-17T01:39:20.920Z,97622.00
2023-04-17T01:44:21.700Z,97625.00
2023-04-17T01:49:22.591Z,97619.00
2023-04-17T01:54:24.170Z,97620.00
2023-04-17T01:59:25.279Z,97618.00
2023-04-17T02:04:26.291Z,97617.00
2023-04-17T02:09:27.573Z,97618.00
2023-04-17T02:14:30.472Z,97609.00
2023-04-17T02:19:31.489Z,97614.00
2023-04-17T02:24:32.274Z,97607.00
2023-04-17T02:29:34.609Z,97615.00
2023-04-17T02:34:35.785Z,97616.00
2023-04-17T02:39:36.889Z,97618.00
2023-04-17T02:44:39.145Z,97619.00
2023-04-17T02:49:41.073Z,97614.00
2023-04-17T02:54:41.886Z,97619.00
2023-04-17T02:59:44.177Z,97619.00
2023-04-17T03:04:45.307Z,97624.00
2023-04-17T03:09:46.666Z,97623.00
2023-04-17T03:14:47.826Z,97615.00
2023-04-17T03:19:48.856Z,97619.00
2023-04-17T03:24:49.681Z,97613.00
2023-04-17T03:29:51.472Z,97614.00
2023-04-17T03:34:52.564Z,97612.00
2023-04-17T03:39:54.841Z,97612.00
2023-04-17T03:44:55.794Z,97612.00
2023-04-17T03:49:57.418Z,97612.00
2023-04-17T03:54:58.921Z,97620.00
2023-04-17T04:00:00.324Z,97616.00
2023-04-17T04:05:07.095Z,97619.00
2023-04-17T04:10:08.917Z,97614.00
2023-04-17T04:15:10.146Z,97612.00
2023-04-17T04:20:12.599Z,97620.00
2023-04-17T04:25:15.220Z,97619.00
2023-04-17T04:31:04.597Z,97621.00
2023-04-17T04:36:13.226Z,97624.00
2023-04-17T04:41:14.504Z,97626.00
2023-04-17T04:46:15.869Z,97627.00
2023-04-17T04:51:19.170Z,97627.00
2023-04-17T04:56:21.368Z,97621.00
2023-04-17T05:01:23.977Z,97627.00
2023-04-17T05:06:25.371Z,97638.00
2023-04-17T05:11:29.917Z,97632.00
2023-04-17T05:16:32.098Z,97636.00
2023-04-17T05:21:33.448Z,97645.00
2023-04-17T05:26:36.401Z,97648.00
2023-04-17T05:31:39.656Z,97647.00
2023-04-17T05:36:46.429Z,97647.00
2023-04-17T05:41:48.133Z,97661.00
2023-04-17T05:46:48.960Z,97659.00
2023-04-17T05:51:49.956Z,97667.00
2023-04-17T05:56:52.436Z,97665.00
2023-04-17T06:01:53.611Z,97661.00
2023-04-17T06:06:55.932Z,97666.00
2023-04-17T06:11:57.381Z,97659.00
2023-04-17T06:16:58.636Z,97672.00
2023-04-17T06:21:59.692Z,97675.00
2023-04-17T06:27:00.812Z,97672.00
2023-04-17T06:32:01.797Z,97677.00
2023-04-17T06:37:02.858Z,97674.00
2023-04-17T06:42:05.569Z,97672.00
2023-04-17T06:47:11.528Z,97670.00
2023-04-17T06:52:12.583Z,97675.00
2023-04-17T06:57:13.360Z,97675.00
2023-04-17T07:02:14.416Z,97684.00
2023-04-17T07:07:15.980Z,97703.00
2023-04-17T07:12:16.821Z,97706.00
2023-04-17T07:17:18.205Z,97708.00
2023-04-17T07:22:19.100Z,97721.00
2023-04-17T07:27:19.972Z,97721.00
2023-04-17T07:32:23.417Z,97729.00
2023-04-17T07:37:24.939Z,97732.00
2023-04-17T07:42:25.706Z,97734.00
2023-04-17T07:47:26.490Z,97734.00
2023-04-17T07:52:27.425Z,97733.00
2023-04-17T07:57:28.226Z,97742.00
2023-04-17T08:02:29.626Z,97741.00
2023-04-17T08:07:30.733Z,97735.00
2023-04-17T08:12:32.269Z,97741.00
2023-04-17T08:17:33.487Z,97747.00
2023-04-17T08:22:42.003Z,97747.00
2023-04-17T08:27:42.901Z,97745.00
2023-04-17T08:32:46.398Z,97748.00
2023-04-17T08:37:47.354Z,97758.00
2023-04-17T08:42:49.674Z,97754.00
2023-04-17T08:47:50.580Z,97755.00
2023-04-17T08:52:51.913Z,97751.00
2023-04-17T08:58:04.000Z,97753.00
2023-04-17T09:03:07.111Z,97754.00
2023-04-17T09:08:23.577Z,97744.00
2023-04-17T09:13:26.521Z,97756.00
2023-04-17T09:18:31.507Z,97757.00
2023-04-17T09:23:50.273Z,97758.00
2023-04-17T09:29:08.237Z,97752.00
2023-04-17T09:34:13.239Z,97758.00
2023-04-17T09:39:19.700Z,97754.00
2023-04-17T09:44:26.256Z,97757.00
2023-04-17T09:50:01.888Z,97759.00
2023-04-17T09:55:06.183Z,97764.00
2023-04-17T10:00:14.028Z,97761.00
2023-04-17T10:05:15.144Z,97770.00
2023-04-17T10:10:32.585Z,97764.00
2023-04-17T10:15:34.554Z,97767.00
2023-04-17T10:20:37.350Z,97769.00
2023-04-17T10:25:38.387Z,97776.00
2023-04-17T10:30:53.332Z,97774.00
2023-04-17T10:35:54.387Z,97766.00
2023-04-17T10:40:55.199Z,97760.00
2023-04-17T10:46:09.360Z,97757.00
2023-04-17T10:53:03.581Z,97762.00
2023-04-17T10:58:14.574Z,97753.00
2023-04-17T11:03:16.437Z,97745.00
2023-04-17T11:08:17.348Z,97742.00
2023-04-17T11:13:18.562Z,97737.00
2023-04-17T11:18:20.825Z,97726.00
2023-04-17T11:23:21.666Z,97736.00
2023-04-17T11:28:22.436Z,97736.00
2023-04-17T11:33:23.205Z,97731.00
2023-04-17T11:38:24.144Z,97733.00
2023-04-17T11:43:27.108Z,97732.00
2023-04-17T11:48:29.504Z,97729.00
2023-04-17T11:53:31.381Z,97740.00
2023-04-17T11:58:32.281Z,97745.00
2023-04-17T12:03:34.491Z,97740.00
2023-04-17T12:08:47.251Z,97735.00
2023-04-17T12:13:48.056Z,97739.00
2023-04-17T12:18:48.960Z,97750.00
2023-04-17T12:23:50.028Z,97743.00
2023-04-17T12:28:51.085Z,97743.00
2023-04-17T12:33:51.850Z,97746.00
2023-04-17T12:38:52.743Z,97748.00
2023-04-17T12:43:53.844Z,97750.00
2023-04-17T12:48:57.706Z,97744.00
2023-04-17T12:53:58.536Z,97739.00
2023-04-17T12:59:02.224Z,97745.00
2023-04-17T13:04:04.311Z,97740.00
2023-04-17T13:09:05.410Z,97739.00
2023-04-17T13:14:06.628Z,97740.00
2023-04-17T13:19:07.426Z,97742.00
2023-04-17T13:24:13.716Z,97742.00
2023-04-17T13:29:17.019Z,97737.00
2023-04-17T13:34:19.419Z,97738.00
2023-04-17T13:39:20.485Z,97732.00
2023-04-17T13:44:21.313Z,97738.00
2023-04-17T13:49:22.092Z,97730.00
2023-04-17T13:54:22.885Z,97725.00
2023-04-17T13:59:24.193Z,97728.00
2023-04-17T14:04:25.170Z,97722.00
2023-04-17T14:09:26.598Z,97722.00
2023-04-17T14:14:27.373Z,97721.00
2023-04-17T14:19:28.649Z,97725.00
2023-04-17T14:24:29.430Z,97714.00
2023-04-17T14:29:30.253Z,97713.00
2023-04-17T14:34:31.054Z,97711.00
2023-04-17T14:39:32.339Z,97714.00
2023-04-17T14:44:33.195Z,97718.00
2023-04-17T14:49:34.211Z,97716.00
2023-04-17T14:54:35.110Z,97711.00
2023-04-17T14:59:36.071Z,97711.00
2023-04-17T15:04:36.891Z,97710.00
2023-04-17T15:09:37.797Z,97712.00
2023-04-17T15:14:38.607Z,97709.00
2023-04-17T15:19:39.718Z,97709.00
2023-04-17T15:24:40.469Z,97715.00
2023-04-17T15:29:41.358Z,97709.00
2023-04-17T15:34:42.343Z,97704.00
2023-04-17T15:39:43.258Z,97703.00
2023-04-17T15:44:44.079Z,97705.00
2023-04-17T15:49:47.220Z,97692.00
2023-04-17T15:54:48.159Z,97695.00
2023-04-17T15:59:48.953Z,97687.00
2023-04-17T16:04:49.842Z,97689.00
2023-04-17T16:09:50.776Z,97687.00
2023-04-17T16:14:51.642Z,97686.00
2023-04-17T16:19:52.587Z,97687.00
2023-04-17T16:24:53.320Z,97678.00
2023-04-17T16:29:54.795Z,97682.00
2023-04-17T16:34:55.530Z,97682.00
2023-04-17T16:39:56.423Z,97692.00
2023-04-17T16:44:57.833Z,97688.00
2023-04-17T16:49:58.660Z,97687.00
2023-04-17T16:54:59.480Z,97694.00
2023-04-17T17:00:00.305Z,97693.00
2023-04-17T17:05:01.139Z,97692.00
2023-04-17T17:10:02.868Z,97695.00
2023-04-17T17:15:05.338Z,97691.00
2023-04-17T17:20:08.086Z,97690.00
2023-04-17T17:25:08.948Z,97691.00
2023-04-17T17:30:12.365Z,97699.00
2023-04-17T17:35:13.142Z,97706.00
2023-04-17T17:40:14.021Z,97700.00
2023-04-17T17:45:15.151Z,97700.00
2023-04-17T17:50:15.988Z,97697.00
2023-04-17T17:55:17.210Z,97701.00
2023-04-17T18:00:18.397Z,97702.00
2023-04-17T18:05:19.199Z,97701.00
2023-04-17T18:10:20.209Z,97701.00
2023-04-17T18:15:21.290Z,97704.00
2023-04-17T18:20:22.513Z,97715.00
2023-04-17T18:25:23.308Z,97711.00
2023-04-17T18:30:24.235Z,97703.00
2023-04-17T18:35:25.061Z,97712.00
2023-04-17T18:40:25.915Z,97715.00
2023-04-17T18:45:27.193Z,97717.00
2023-04-17T18:50:27.999Z,97717.00
2023-04-17T18:55:28.846Z,97726.00
2023-04-17T19:00:29.665Z,97726.00
2023-04-17T19:05:30.485Z,97728.00
2023-04-17T19:10:31.428Z,97728.00
2023-04-17T19:15:32.225Z,97732.00
2023-04-17T19:20:33.003Z,97728.00
2023-04-17T19:25:34.291Z,97724.00
2023-04-17T19:30:35.138Z,97723.00
2023-04-17T19:35:36.048Z,97730.00
2023-04-17T19:40:36.965Z,97732.00
2023-04-17T19:45:38.165Z,97734.00
2023-04-17T19:50:38.970Z,97731.00
2023-04-17T19:55:40.796Z,97737.00
2023-04-17T20:00:41.578Z,97737.00
2023-04-17T20:05:42.365Z,97731.00
2023-04-17T20:10:43.274Z,97737.00
2023-04-17T20:15:44.091Z,97737.00
2023-04-17T20:20:44.880Z,97734.00
2023-04-17T20:25:46.348Z,97730.00
2023-04-17T20:30:47.129Z,97725.00
2023-04-17T20:35:47.904Z,97724.00
2023-04-17T20:40:48.767Z,97719.00
2023-04-17T20:45:49.685Z,97729.00
2023-04-17T20:50:51.098Z,97734.00
2023-04-17T20:55:51.846Z,97720.00
2023-04-17T21:01:00.745Z,97722.00
2023-04-17T21:06:02.812Z,97723.00
2023-04-17T21:11:04.073Z,97705.00
2023-04-17T21:16:08.953Z,97721.00
2023-04-17T21:21:09.771Z,97724.00
2023-04-17T21:26:10.652Z,97718.00
2023-04-17T21:31:14.417Z,97712.00
2023-04-17T21:36:15.217Z,97711.00
2023-04-17T21:41:16.147Z,97706.00
2023-04-17T21:46:17.060Z,97707.00
2023-04-17T21:51:17.957Z,97714.00
2023-04-17T21:56:18.720Z,97717.00
2023-04-17T22:01:19.689Z,97711.00
2023-04-17T22:06:20.737Z,97718.00
2023-04-17T22:11:22.286Z,97718.00
2023-04-17T22:16:23.065Z,97706.00
2023-04-17T22:21:23.909Z,97710.00
2023-04-17T22:26:26.406Z,97708.00
2023-04-17T22:31:27.394Z,97711.00
2023-04-17T22:36:28.249Z,97702.00
2023-04-17T22:41:29.112Z,97704.00
2023-04-17T22:46:30.234Z,97705.00
2023-04-17T22:51:31.975Z,97700.00
2023-04-17T22:56:33.202Z,97701.00
2023-04-17T23:01:33.991Z,97702.00
2023-04-17T23:06:34.809Z,97698.00
2023-04-17T23:11:35.648Z,97710.00
2023-04-17T23:16:36.513Z,97696.00
2023-04-17T23:21:37.355Z,97708.00
2023-04-17T23:26:38.465Z,97702.00
2023-04-17T23:31:39.259Z,97702.00
2023-04-17T23:36:40.081Z,97690.00
2023-04-17T23:41:41.888Z,97693.00
2023-04-17T23:46:42.674Z,97696.00
2023-04-17T23:51:43.500Z,97693.00
2023-04-17T23:56:44.459Z,97689.00
